createdAt,value
2018-05-01T00:01:41.080Z,4.77
2018-05-01T00:07:41.526Z,5.61
2018-05-01T00:13:42.090Z,4.14
2018-05-01T00:17:42.580Z,5.6
2018-05-01T00:23:43.058Z,8.73
2018-05-01T00:27:43.619Z,6.7
2018-05-01T00:33:44.065Z,5.91
2018-05-01T00:39:44.722Z,4.36
2018-05-01T00:43:45.188Z,3.84
2018-05-01T00:49:45.782Z,4.42
2018-05-01T00:53:46.217Z,3.74
2018-05-01T00:55:46.778Z,4.77
2018-05-01T00:59:47.341Z,4.28
2018-05-01T01:05:47.919Z,3.8
2018-05-01T01:09:48.519Z,3.27
2018-05-01T01:15:49.069Z,5.41
2018-05-01T01:19:49.593Z,4.92
2018-05-01T01:21:50.138Z,4.06
2018-05-01T01:25:50.665Z,5.88
2018-05-01T01:31:51.350Z,5.73
2018-05-01T01:35:51.892Z,5.25
2018-05-01T01:41:52.486Z,5.39
2018-05-01T01:47:53.024Z,4.4
2018-05-01T01:51:53.595Z,4.58
2018-05-01T01:57:54.147Z,4.94
2018-05-01T02:01:54.647Z,3.21
2018-05-01T02:07:55.164Z,3.86
2018-05-01T02:13:55.675Z,4.49
2018-05-01T02:17:56.200Z,3.37
2018-05-01T02:23:56.636Z,4.28
2018-05-01T02:27:57.215Z,3.57
2018-05-01T02:33:57.706Z,4.62
2018-05-01T02:39:58.408Z,4.2
2018-05-01T02:43:58.941Z,5.41
2018-05-01T02:49:59.760Z,3.79
2018-05-01T02:54:00.226Z,5.67
2018-05-01T02:56:00.678Z,5.81
2018-05-01T03:00:01.291Z,4.74
2018-05-01T03:06:01.727Z,4.79
2018-05-01T03:10:02.306Z,6.32
2018-05-01T03:16:02.900Z,5.3
2018-05-01T03:20:03.452Z,5.19
2018-05-01T03:22:03.999Z,5.1
2018-05-01T03:26:04.604Z,4.97
2018-05-01T03:32:05.018Z,8.92
2018-05-01T03:36:05.781Z,6.42
2018-05-01T03:42:06.310Z,4.37
2018-05-01T03:48:06.866Z,4.87
2018-05-01T03:52:07.532Z,4.13
2018-05-01T03:58:07.984Z,4.23
2018-05-01T04:08:09.960Z,5.55
2018-05-01T04:08:10.011Z,5.29
2018-05-01T04:14:10.610Z,5.45
2018-05-01T04:18:12.126Z,4.88
2018-05-01T04:24:12.981Z,3.69
2018-05-01T04:28:13.612Z,4.57
2018-05-01T04:34:14.147Z,4.91
2018-05-01T04:40:14.588Z,5.09
2018-05-01T04:44:15.211Z,4.4
2018-05-01T04:50:15.686Z,5.6
2018-05-01T04:50:15.694Z,5.6
2018-05-01T04:54:16.233Z,5.29
2018-05-01T04:56:16.760Z,5.69
2018-05-01T05:00:17.588Z,4.9
2018-05-01T05:06:18.085Z,4.18
2018-05-01T05:10:18.674Z,5.6
2018-05-01T05:16:19.348Z,3.11
2018-05-01T05:20:20.271Z,5.65
2018-05-01T05:22:20.753Z,4.68
2018-05-01T05:26:21.583Z,4.76
2018-05-01T05:32:22.080Z,4.08
2018-05-01T05:36:22.645Z,4.15
2018-05-01T05:42:23.258Z,5.12
2018-05-01T05:48:25.480Z,5.92
2018-05-01T05:48:25.593Z,3.45
2018-05-01T05:52:26.476Z,6.39
2018-05-01T05:58:26.999Z,3.62
2018-05-01T06:02:27.616Z,6.15
2018-05-01T06:08:28.274Z,5.67
2018-05-01T06:14:28.752Z,4.18
2018-05-01T06:18:29.329Z,5.72
2018-05-01T06:24:30.009Z,4.32
2018-05-01T06:28:30.776Z,4.88
2018-05-01T06:34:31.940Z,5.69
2018-05-01T06:40:32.516Z,5.48
2018-05-01T06:44:33.162Z,4.35
2018-05-01T06:50:33.767Z,9.9
2018-05-01T06:54:34.372Z,7.71
2018-05-01T07:00:34.906Z,8.02
2018-05-01T07:06:35.455Z,8.34
2018-05-01T07:10:36.080Z,7.01
2018-05-01T07:16:36.835Z,3.91
2018-05-01T07:20:37.403Z,5.35
2018-05-01T07:22:37.946Z,5.74
2018-05-01T07:26:38.508Z,5.41
2018-05-01T07:32:39.049Z,8.6
2018-05-01T07:36:39.588Z,6.81
2018-05-01T07:42:40.281Z,9.39
2018-05-01T07:46:40.897Z,10.44
2018-05-01T07:48:41.398Z,8.12
2018-05-01T07:52:41.923Z,9.46
2018-05-01T07:58:42.466Z,6.78
2018-05-01T08:02:42.994Z,7.36
2018-05-01T08:08:43.663Z,6.87
2018-05-01T08:12:44.133Z,6.72
2018-05-01T08:14:44.647Z,8.44
2018-05-01T08:18:45.259Z,9.97
2018-05-01T08:24:45.829Z,8.59
2018-05-01T08:28:46.333Z,9.81
2018-05-01T08:34:46.831Z,6.49
2018-05-01T08:40:47.526Z,6.39
2018-05-01T08:44:48.126Z,7.11
2018-05-01T08:50:48.604Z,6.79
2018-05-01T08:54:49.162Z,8.56
2018-05-01T09:00:49.645Z,11.44
2018-05-01T09:06:50.275Z,10.13
2018-05-01T09:10:50.847Z,12.32
2018-05-01T09:16:51.447Z,10.25
2018-05-01T09:20:52.186Z,8.2
2018-05-01T09:22:52.675Z,11
2018-05-01T09:26:53.312Z,11.15
2018-05-01T09:32:53.858Z,14.66
2018-05-01T09:36:54.512Z,20.74
2018-05-01T09:42:54.971Z,22.12
2018-05-01T09:46:55.483Z,24.41
2018-05-01T09:48:55.919Z,25.21
2018-05-01T09:52:56.545Z,22.66
2018-05-01T09:58:57.045Z,9.9
2018-05-01T10:02:57.621Z,10.13
2018-05-01T10:08:58.189Z,12.37
2018-05-01T10:12:58.821Z,11.43
2018-05-01T10:14:59.248Z,19.68
2018-05-01T10:18:59.853Z,18.12
2018-05-01T10:25:00.402Z,10
2018-05-01T10:29:00.939Z,12.08
2018-05-01T10:35:01.519Z,13.41
2018-05-01T10:41:02.121Z,19.12
2018-05-01T10:45:02.668Z,30.34
2018-05-01T10:51:03.173Z,13.46
2018-05-01T10:55:03.754Z,13.03
2018-05-01T11:01:04.382Z,14.52
2018-05-01T11:07:05.011Z,10.57
2018-05-01T11:11:05.540Z,13.76
2018-05-01T11:17:05.998Z,22.86
2018-05-01T11:21:06.567Z,28.26
2018-05-01T11:27:07.349Z,15.75
2018-05-01T11:33:07.937Z,9.71
2018-05-01T11:37:08.464Z,11.33
2018-05-01T11:43:09.000Z,13.76
2018-05-01T11:47:09.532Z,13.58
2018-05-01T11:49:09.924Z,10.87
2018-05-01T11:53:10.562Z,12.07
2018-05-01T11:59:11.030Z,6.83
2018-05-01T12:03:11.608Z,9.95
2018-05-01T12:09:12.232Z,9
2018-05-01T12:13:12.752Z,8.69
2018-05-01T12:15:14.621Z,8.04
2018-05-01T12:19:15.207Z,7.81
2018-05-01T12:25:15.702Z,10.08
2018-05-01T12:29:16.271Z,11.37
2018-05-01T12:35:16.732Z,10.1
2018-05-01T12:41:17.292Z,8.94
2018-05-01T12:45:18.244Z,10.71
2018-05-01T12:51:18.754Z,10.91
2018-05-01T12:55:19.374Z,8.57
2018-05-01T13:01:19.883Z,6.34
2018-05-01T13:07:20.451Z,5.59
2018-05-01T13:17:22.701Z,5.37
2018-05-01T13:17:22.738Z,5.5
2018-05-01T13:21:23.344Z,6.21
2018-05-01T13:27:24.115Z,5.07
2018-05-01T13:33:24.825Z,4.06
2018-05-01T13:37:25.444Z,4.87
2018-05-01T13:43:26.151Z,6.43
2018-05-01T13:47:26.704Z,4.81
2018-05-01T13:49:27.321Z,4.33
2018-05-01T13:53:27.920Z,4.65
2018-05-01T13:59:28.499Z,5.64
2018-05-01T14:03:29.020Z,6.09
2018-05-01T14:09:29.836Z,5.08
2018-05-01T14:13:30.455Z,6.47
2018-05-01T14:15:31.123Z,11.45
2018-05-01T14:19:31.698Z,12.31
2018-05-01T14:25:33.089Z,5.02
2018-05-01T14:29:33.499Z,4.47
2018-05-01T14:35:34.203Z,8.72
2018-05-01T14:39:34.870Z,12.11
2018-05-01T14:41:35.473Z,10.17
2018-05-01T14:45:36.064Z,10.36
2018-05-01T14:51:36.704Z,8.17
2018-05-01T14:55:37.297Z,6.78
2018-05-01T15:01:37.866Z,8.44
2018-05-01T15:07:38.386Z,5.14
2018-05-01T15:11:38.872Z,6.19
2018-05-01T15:17:39.497Z,9.83
2018-05-01T15:21:40.009Z,9.05
2018-05-01T15:27:40.949Z,9.19
2018-05-01T15:33:41.789Z,10.31
2018-05-01T15:37:42.371Z,8.74
2018-05-01T15:43:42.856Z,7.64
2018-05-01T15:47:43.465Z,6.36
2018-05-01T15:53:44.011Z,6.7
2018-05-01T15:59:45.298Z,16.55
2018-05-01T16:03:45.732Z,17.39
2018-05-01T16:09:46.268Z,18.24
2018-05-01T16:13:47.911Z,21.8
2018-05-01T16:15:48.299Z,17.69
2018-05-01T16:19:48.868Z,21.12
2018-05-01T16:25:49.393Z,14.63
2018-05-01T16:29:49.942Z,14.94
2018-05-01T16:35:50.552Z,7.74
2018-05-01T16:39:51.105Z,6.97
2018-05-01T16:41:51.565Z,6.07
2018-05-01T16:45:52.537Z,5.71
2018-05-01T16:51:52.959Z,5.29
2018-05-01T16:55:53.667Z,5.31
2018-05-01T17:01:54.172Z,6.61
2018-05-01T17:05:54.806Z,9.63
2018-05-01T17:07:55.430Z,13.44
2018-05-01T17:11:55.975Z,15.31
2018-05-01T17:17:56.518Z,5.68
2018-05-01T17:22:03.217Z,5.17
2018-05-01T17:28:13.655Z,6.56
2018-05-01T17:32:14.566Z,7.66
2018-05-01T17:34:15.198Z,5.77
2018-05-01T17:38:15.867Z,5.46
2018-05-01T17:44:17.168Z,5.6
2018-05-01T17:48:17.975Z,6.27
2018-05-01T17:54:18.677Z,9.23
2018-05-01T17:58:28.939Z,8.31
2018-05-01T18:04:30.897Z,7.47
2018-05-01T18:10:37.122Z,5.27
2018-05-01T18:14:37.698Z,6.18
2018-05-01T18:20:38.958Z,9.29
2018-05-01T18:24:39.486Z,8.51
2018-05-01T18:30:40.201Z,8.04
2018-05-01T18:36:41.032Z,7.99
2018-05-01T18:40:41.994Z,9.83
2018-05-01T18:46:42.681Z,11.05
2018-05-01T18:50:48.466Z,11.28
2018-05-01T18:56:49.041Z,9.63
2018-05-01T19:02:49.720Z,9.11
2018-05-01T19:06:50.240Z,8.74
2018-05-01T19:12:57.120Z,9.86
2018-05-01T19:16:57.635Z,8.76
2018-05-01T19:22:58.229Z,9.97
2018-05-01T19:28:58.800Z,7.83
2018-05-01T19:32:59.336Z,9.39
2018-05-01T19:39:00.198Z,10.53
2018-05-01T19:43:00.665Z,10.06
2018-05-01T19:49:01.310Z,9.42
2018-05-01T19:55:02.062Z,9.5
2018-05-01T19:59:02.663Z,11.65
2018-05-01T20:05:03.279Z,10.04
2018-05-01T20:09:03.814Z,9.34
2018-05-01T20:11:04.353Z,11.55
2018-05-01T20:15:04.972Z,10.44
2018-05-01T20:21:05.512Z,9.83
2018-05-01T20:25:05.931Z,11.04
2018-05-01T20:31:06.504Z,9.9
2018-05-01T20:35:07.155Z,8.57
2018-05-01T20:37:07.533Z,8.48
2018-05-01T20:41:08.232Z,10.03
2018-05-01T20:47:08.762Z,8.93
2018-05-01T20:51:09.379Z,8.84
2018-05-01T20:57:09.931Z,8.92
2018-05-01T21:01:10.466Z,9.63
2018-05-01T21:03:10.876Z,9.23
2018-05-01T21:07:11.386Z,9.92
2018-05-01T21:13:11.889Z,10.39
2018-05-01T21:17:12.513Z,10.07
2018-05-01T21:23:13.175Z,8.42
2018-05-01T21:29:13.666Z,11
2018-05-01T21:33:14.172Z,9.4
2018-05-01T21:39:14.757Z,7.78
2018-05-01T21:43:15.328Z,9.68
2018-05-01T21:49:16.058Z,10.66
2018-05-01T21:55:16.579Z,9.37
2018-05-01T21:59:17.141Z,10.07
2018-05-01T22:05:17.731Z,11.2
2018-05-01T22:09:18.372Z,11.44
2018-05-01T22:15:19.438Z,10.02
2018-05-01T22:21:20.075Z,8.65
2018-05-01T22:25:20.645Z,9.98
2018-05-01T22:31:21.272Z,10.25
2018-05-01T22:35:21.862Z,10.52
2018-05-01T22:37:22.395Z,11.62
2018-05-01T22:41:22.824Z,12.23
2018-05-01T22:47:23.387Z,9.49
2018-05-01T22:51:23.885Z,12.64
2018-05-01T22:57:24.462Z,10.31
2018-05-01T23:01:25.102Z,11.3
2018-05-01T23:03:25.657Z,9.05
2018-05-01T23:07:26.214Z,9.63
2018-05-01T23:13:26.687Z,9.74
2018-05-01T23:17:27.294Z,10.69
2018-05-01T23:23:27.775Z,12.16
2018-05-01T23:29:28.361Z,11.21
2018-05-01T23:33:28.915Z,9.23
2018-05-01T23:39:29.431Z,12.55
2018-05-01T23:43:30.177Z,11.02
2018-05-01T23:49:30.640Z,12.79
2018-05-01T23:55:31.303Z,12.75
2018-05-01T23:59:31.820Z,12.15
